sensor_id;sensor_type;location;lat;lon;timestamp;P1;durP1;ratioP1;P2;durP2;ratioP2
17686;SDS011;8962;52.538;13.266;2023-04-01T00:00:33;3.60;;;2.20;;
17686;SDS011;8962;52.538;13.266;2023-04-01T00:03:00;6.03;;;2.20;;
17686;SDS011;8962;52.538;13.266;2023-04-01T00:05:27;2.97;;;2.10;;
17686;SDS011;8962;52.538;13.266;2023-04-01T00:07:54;4.13;;;2.30;;
17686;SDS011;8962;52.538;13.266;2023-04-01T00:10:21;3.20;;;1.98;;
17686;SDS011;8962;52.538;13.266;2023-04-01T00:12:49;5.47;;;2.10;;
17686;SDS011;8962;52.538;13.266;2023-04-01T00:15:16;6.38;;;2.65;;
17686;SDS011;8962;52.538;13.266;2023-04-01T00:17:43;5.03;;;2.40;;
17686;SDS011;8962;52.538;13.266;2023-04-01T00:20:11;4.90;;;2.00;;
17686;SDS011;8962;52.538;13.266;2023-04-01T00:22:39;3.55;;;1.95;;
17686;SDS011;8962;52.538;13.266;2023-04-01T00:25:07;6.85;;;2.20;;
17686;SDS011;8962;52.538;13.266;2023-04-01T00:27:34;4.88;;;2.15;;
17686;SDS011;8962;52.538;13.266;2023-04-01T00:30:03;3.92;;;2.17;;
17686;SDS011;8962;52.538;13.266;2023-04-01T00:32:31;5.35;;;2.20;;
17686;SDS011;8962;52.538;13.266;2023-04-01T00:34:58;3.28;;;2.40;;
17686;SDS011;8962;52.538;13.266;2023-04-01T00:37:26;6.03;;;2.40;;
17686;SDS011;8962;52.538;13.266;2023-04-01T00:39:53;6.38;;;2.50;;
17686;SDS011;8962;52.538;13.266;2023-04-01T00:42:21;6.07;;;2.40;;
17686;SDS011;8962;52.538;13.266;2023-04-01T00:44:49;7.10;;;2.28;;
17686;SDS011;8962;52.538;13.266;2023-04-01T00:47:19;5.55;;;2.65;;
17686;SDS011;8962;52.538;13.266;2023-04-01T00:49:49;5.50;;;3.08;;
17686;SDS011;8962;52.538;13.266;2023-04-01T00:52:18;7.03;;;2.92;;
17686;SDS011;8962;52.538;13.266;2023-04-01T00:54:49;7.00;;;2.80;;
17686;SDS011;8962;52.538;13.266;2023-04-01T00:57:21;7.30;;;2.92;;
17686;SDS011;8962;52.538;13.266;2023-04-01T00:59:53;4.57;;;2.50;;
17686;SDS011;8962;52.538;13.266;2023-04-01T01:02:22;4.95;;;2.80;;
17686;SDS011;8962;52.538;13.266;2023-04-01T01:04:49;4.32;;;2.55;;
17686;SDS011;8962;52.538;13.266;2023-04-01T01:07:19;4.88;;;2.70;;
17686;SDS011;8962;52.538;13.266;2023-04-01T01:09:55;6.40;;;2.88;;
17686;SDS011;8962;52.538;13.266;2023-04-01T01:12:29;6.28;;;2.58;;
17686;SDS011;8962;52.538;13.266;2023-04-01T01:15:03;4.53;;;2.60;;
17686;SDS011;8962;52.538;13.266;2023-04-01T01:17:42;5.07;;;2.60;;
17686;SDS011;8962;52.538;13.266;2023-04-01T01:26:30;6.50;;;2.60;;
17686;SDS011;8962;52.538;13.266;2023-04-01T01:29:11;5.55;;;2.42;;
17686;SDS011;8962;52.538;13.266;2023-04-01T01:31:53;6.30;;;2.97;;
17686;SDS011;8962;52.538;13.266;2023-04-01T01:34:28;6.10;;;2.75;;
17686;SDS011;8962;52.538;13.266;2023-04-01T01:37:05;8.95;;;3.10;;
17686;SDS011;8962;52.538;13.266;2023-04-01T01:39:36;6.00;;;3.33;;
17686;SDS011;8962;52.538;13.266;2023-04-01T01:42:06;6.18;;;3.08;;
17686;SDS011;8962;52.538;13.266;2023-04-01T01:44:38;4.50;;;2.60;;
17686;SDS011;8962;52.538;13.266;2023-04-01T01:47:07;5.07;;;2.45;;
17686;SDS011;8962;52.538;13.266;2023-04-01T01:49:35;4.05;;;2.20;;
17686;SDS011;8962;52.538;13.266;2023-04-01T01:52:04;4.30;;;2.30;;
17686;SDS011;8962;52.538;13.266;2023-04-01T01:54:32;5.65;;;2.40;;
17686;SDS011;8962;52.538;13.266;2023-04-01T01:57:01;8.23;;;2.67;;
17686;SDS011;8962;52.538;13.266;2023-04-01T01:59:34;4.53;;;2.50;;
17686;SDS011;8962;52.538;13.266;2023-04-01T02:02:04;5.65;;;2.30;;
17686;SDS011;8962;52.538;13.266;2023-04-01T02:04:34;5.22;;;2.58;;
17686;SDS011;8962;52.538;13.266;2023-04-01T02:07:07;7.00;;;2.30;;
17686;SDS011;8962;52.538;13.266;2023-04-01T02:09:37;5.35;;;2.78;;
17686;SDS011;8962;52.538;13.266;2023-04-01T02:12:07;5.65;;;2.90;;
17686;SDS011;8962;52.538;13.266;2023-04-01T02:14:39;4.47;;;2.75;;
17686;SDS011;8962;52.538;13.266;2023-04-01T02:17:12;4.47;;;2.70;;
17686;SDS011;8962;52.538;13.266;2023-04-01T02:19:44;6.75;;;2.75;;
17686;SDS011;8962;52.538;13.266;2023-04-01T02:22:16;6.38;;;2.58;;
17686;SDS011;8962;52.538;13.266;2023-04-01T02:24:48;4.35;;;2.50;;
17686;SDS011;8962;52.538;13.266;2023-04-01T02:27:16;4.93;;;2.50;;
17686;SDS011;8962;52.538;13.266;2023-04-01T02:29:46;3.50;;;2.45;;
17686;SDS011;8962;52.538;13.266;2023-04-01T02:32:13;4.65;;;2.78;;
17686;SDS011;8962;52.538;13.266;2023-04-01T02:34:42;6.47;;;2.42;;
17686;SDS011;8962;52.538;13.266;2023-04-01T02:37:10;5.57;;;2.60;;
17686;SDS011;8962;52.538;13.266;2023-04-01T02:39:40;5.72;;;2.42;;
17686;SDS011;8962;52.538;13.266;2023-04-01T02:42:07;4.80;;;2.55;;
17686;SDS011;8962;52.538;13.266;2023-04-01T02:44:35;4.90;;;2.80;;
17686;SDS011;8962;52.538;13.266;2023-04-01T02:47:02;5.80;;;2.50;;
17686;SDS011;8962;52.538;13.266;2023-04-01T02:49:29;5.35;;;2.47;;
17686;SDS011;8962;52.538;13.266;2023-04-01T02:51:56;4.00;;;2.28;;
17686;SDS011;8962;52.538;13.266;2023-04-01T02:54:23;4.53;;;2.60;;
17686;SDS011;8962;52.538;13.266;2023-04-01T02:56:52;8.40;;;2.65;;
17686;SDS011;8962;52.538;13.266;2023-04-01T02:59:19;5.88;;;2.40;;
17686;SDS011;8962;52.538;13.266;2023-04-01T03:01:46;4.68;;;2.40;;
17686;SDS011;8962;52.538;13.266;2023-04-01T03:04:13;8.63;;;2.50;;
17686;SDS011;8962;52.538;13.266;2023-04-01T03:06:40;3.58;;;2.28;;
17686;SDS011;8962;52.538;13.266;2023-04-01T03:09:07;6.45;;;2.38;;
17686;SDS011;8962;52.538;13.266;2023-04-01T03:11:35;6.60;;;2.50;;
17686;SDS011;8962;52.538;13.266;2023-04-01T03:14:03;5.38;;;2.72;;
17686;SDS011;8962;52.538;13.266;2023-04-01T03:16:31;4.20;;;2.38;;
17686;SDS011;8962;52.538;13.266;2023-04-01T03:18:58;6.55;;;2.50;;
17686;SDS011;8962;52.538;13.266;2023-04-01T03:21:27;6.93;;;2.42;;
17686;SDS011;8962;52.538;13.266;2023-04-01T03:23:55;5.68;;;2.53;;
17686;SDS011;8962;52.538;13.266;2023-04-01T03:26:22;5.45;;;2.60;;
17686;SDS011;8962;52.538;13.266;2023-04-01T03:28:49;4.93;;;2.47;;
17686;SDS011;8962;52.538;13.266;2023-04-01T03:31:17;4.45;;;2.50;;
17686;SDS011;8962;52.538;13.266;2023-04-01T03:33:50;3.58;;;2.50;;
17686;SDS011;8962;52.538;13.266;2023-04-01T03:36:17;5.10;;;2.33;;
17686;SDS011;8962;52.538;13.266;2023-04-01T03:38:45;7.10;;;2.95;;
17686;SDS011;8962;52.538;13.266;2023-04-01T03:41:18;6.18;;;2.53;;
17686;SDS011;8962;52.538;13.266;2023-04-01T03:43:45;8.80;;;2.53;;
17686;SDS011;8962;52.538;13.266;2023-04-01T03:46:17;4.28;;;2.30;;
17686;SDS011;8962;52.538;13.266;2023-04-01T03:48:45;5.82;;;2.60;;
17686;SDS011;8962;52.538;13.266;2023-04-01T03:51:13;6.15;;;2.92;;
17686;SDS011;8962;52.538;13.266;2023-04-01T03:53:40;5.10;;;2.72;;
17686;SDS011;8962;52.538;13.266;2023-04-01T03:56:08;5.03;;;2.80;;
17686;SDS011;8962;52.538;13.266;2023-04-01T03:58:35;6.05;;;2.35;;
17686;SDS011;8962;52.538;13.266;2023-04-01T04:01:12;5.30;;;2.75;;
17686;SDS011;8962;52.538;13.266;2023-04-01T04:03:42;4.85;;;2.67;;
17686;SDS011;8962;52.538;13.266;2023-04-01T04:06:11;4.97;;;2.70;;
17686;SDS011;8962;52.538;13.266;2023-04-01T04:08:39;4.78;;;2.70;;
17686;SDS011;8962;52.538;13.266;2023-04-01T04:11:06;5.78;;;2.97;;
17686;SDS011;8962;52.538;13.266;2023-04-01T04:13:37;5.68;;;2.60;;
17686;SDS011;8962;52.538;13.266;2023-04-01T04:16:04;5.85;;;3.00;;
17686;SDS011;8962;52.538;13.266;2023-04-01T04:18:33;6.00;;;2.85;;
17686;SDS011;8962;52.538;13.266;2023-04-01T04:21:02;6.07;;;2.65;;
17686;SDS011;8962;52.538;13.266;2023-04-01T04:23:29;4.70;;;2.67;;
17686;SDS011;8962;52.538;13.266;2023-04-01T04:25:59;8.18;;;2.75;;
17686;SDS011;8962;52.538;13.266;2023-04-01T04:28:29;7.13;;;2.40;;
17686;SDS011;8962;52.538;13.266;2023-04-01T04:30:57;7.82;;;2.90;;
17686;SDS011;8962;52.538;13.266;2023-04-01T04:33:25;7.68;;;2.95;;
17686;SDS011;8962;52.538;13.266;2023-04-01T04:35:54;5.57;;;2.60;;
17686;SDS011;8962;52.538;13.266;2023-04-01T04:38:24;6.10;;;2.53;;
17686;SDS011;8962;52.538;13.266;2023-04-01T04:40:52;8.43;;;2.90;;
17686;SDS011;8962;52.538;13.266;2023-04-01T04:43:20;8.52;;;3.15;;
17686;SDS011;8962;52.538;13.266;2023-04-01T04:45:48;6.68;;;3.10;;
17686;SDS011;8962;52.538;13.266;2023-04-01T04:48:15;6.30;;;3.22;;
17686;SDS011;8962;52.538;13.266;2023-04-01T04:50:46;6.78;;;3.50;;
17686;SDS011;8962;52.538;13.266;2023-04-01T04:53:13;7.70;;;3.30;;
17686;SDS011;8962;52.538;13.266;2023-04-01T04:55:45;6.22;;;3.40;;
17686;SDS011;8962;52.538;13.266;2023-04-01T04:58:22;7.75;;;3.40;;
17686;SDS011;8962;52.538;13.266;2023-04-01T05:00:50;7.05;;;3.17;;
17686;SDS011;8962;52.538;13.266;2023-04-01T05:03:25;6.63;;;3.13;;
17686;SDS011;8962;52.538;13.266;2023-04-01T05:05:52;7.00;;;3.10;;
17686;SDS011;8962;52.538;13.266;2023-04-01T05:08:20;6.97;;;3.30;;
17686;SDS011;8962;52.538;13.266;2023-04-01T05:10:48;7.15;;;3.22;;
17686;SDS011;8962;52.538;13.266;2023-04-01T05:13:15;7.72;;;3.15;;
17686;SDS011;8962;52.538;13.266;2023-04-01T05:15:45;7.65;;;3.30;;
17686;SDS011;8962;52.538;13.266;2023-04-01T05:18:12;5.90;;;3.35;;
17686;SDS011;8962;52.538;13.266;2023-04-01T05:20:45;8.02;;;3.20;;
17686;SDS011;8962;52.538;13.266;2023-04-01T05:23:13;7.60;;;3.60;;
17686;SDS011;8962;52.538;13.266;2023-04-01T05:25:40;7.82;;;3.67;;
17686;SDS011;8962;52.538;13.266;2023-04-01T05:28:09;6.88;;;3.85;;
17686;SDS011;8962;52.538;13.266;2023-04-01T05:30:36;6.30;;;3.70;;
17686;SDS011;8962;52.538;13.266;2023-04-01T05:33:19;5.82;;;3.38;;
17686;SDS011;8962;52.538;13.266;2023-04-01T05:35:46;7.07;;;3.63;;
17686;SDS011;8962;52.538;13.266;2023-04-01T05:38:14;5.10;;;2.97;;
17686;SDS011;8962;52.538;13.266;2023-04-01T05:40:41;7.97;;;3.30;;
17686;SDS011;8962;52.538;13.266;2023-04-01T05:43:10;8.57;;;3.67;;
17686;SDS011;8962;52.538;13.266;2023-04-01T05:45:38;7.03;;;3.10;;
17686;SDS011;8962;52.538;13.266;2023-04-01T05:48:10;9.30;;;3.65;;
17686;SDS011;8962;52.538;13.266;2023-04-01T05:50:39;6.65;;;2.85;;
17686;SDS011;8962;52.538;13.266;2023-04-01T05:53:08;8.93;;;3.30;;
17686;SDS011;8962;52.538;13.266;2023-04-01T05:55:37;6.15;;;3.00;;
17686;SDS011;8962;52.538;13.266;2023-04-01T05:58:05;8.07;;;3.50;;
17686;SDS011;8962;52.538;13.266;2023-04-01T06:00:37;7.25;;;3.15;;
17686;SDS011;8962;52.538;13.266;2023-04-01T06:03:04;8.55;;;3.38;;
17686;SDS011;8962;52.538;13.266;2023-04-01T06:05:36;6.97;;;3.28;;
17686;SDS011;8962;52.538;13.266;2023-04-01T06:08:09;6.00;;;2.97;;
17686;SDS011;8962;52.538;13.266;2023-04-01T06:10:40;6.45;;;3.28;;
17686;SDS011;8962;52.538;13.266;2023-04-01T06:13:20;7.75;;;3.20;;
17686;SDS011;8962;52.538;13.266;2023-04-01T06:15:59;5.03;;;2.60;;
17686;SDS011;8962;52.538;13.266;2023-04-01T06:18:44;7.68;;;2.92;;
17686;SDS011;8962;52.538;13.266;2023-04-01T06:21:37;6.60;;;2.95;;
17686;SDS011;8962;52.538;13.266;2023-04-01T06:24:39;10.00;;;3.28;;
17686;SDS011;8962;52.538;13.266;2023-04-01T06:27:17;4.65;;;2.85;;
17686;SDS011;8962;52.538;13.266;2023-04-01T06:29:58;6.75;;;2.70;;
17686;SDS011;8962;52.538;13.266;2023-04-01T06:32:45;6.20;;;2.85;;
17686;SDS011;8962;52.538;13.266;2023-04-01T06:38:27;6.13;;;2.60;;
17686;SDS011;8962;52.538;13.266;2023-04-01T06:44:06;6.97;;;3.00;;
17686;SDS011;8962;52.538;13.266;2023-04-01T06:47:03;7.85;;;2.70;;
17686;SDS011;8962;52.538;13.266;2023-04-01T06:49:59;10.50;;;2.97;;
17686;SDS011;8962;52.538;13.266;2023-04-01T06:52:54;5.95;;;2.80;;
17686;SDS011;8962;52.538;13.266;2023-04-01T06:55:48;8.52;;;3.17;;
17686;SDS011;8962;52.538;13.266;2023-04-01T06:58:34;5.80;;;2.90;;
17686;SDS011;8962;52.538;13.266;2023-04-01T07:01:06;7.65;;;2.97;;
17686;SDS011;8962;52.538;13.266;2023-04-01T07:03:38;6.68;;;2.80;;
17686;SDS011;8962;52.538;13.266;2023-04-01T07:06:12;8.95;;;3.63;;
17686;SDS011;8962;52.538;13.266;2023-04-01T07:08:51;5.50;;;2.97;;
17686;SDS011;8962;52.538;13.266;2023-04-01T07:11:24;7.57;;;3.10;;
17686;SDS011;8962;52.538;13.266;2023-04-01T07:14:34;8.02;;;2.97;;
17686;SDS011;8962;52.538;13.266;2023-04-01T07:17:04;6.90;;;3.22;;
17686;SDS011;8962;52.538;13.266;2023-04-01T07:19:36;6.28;;;2.63;;
17686;SDS011;8962;52.538;13.266;2023-04-01T07:22:16;6.88;;;2.85;;
17686;SDS011;8962;52.538;13.266;2023-04-01T07:25:03;7.22;;;2.97;;
17686;SDS011;8962;52.538;13.266;2023-04-01T07:27:38;6.15;;;2.95;;
17686;SDS011;8962;52.538;13.266;2023-04-01T07:30:07;7.28;;;3.10;;
17686;SDS011;8962;52.538;13.266;2023-04-01T07:32:41;10.98;;;2.85;;
17686;SDS011;8962;52.538;13.266;2023-04-01T07:35:15;7.15;;;3.20;;
17686;SDS011;8962;52.538;13.266;2023-04-01T07:37:52;9.77;;;3.30;;
17686;SDS011;8962;52.538;13.266;2023-04-01T07:40:32;8.23;;;3.33;;
17686;SDS011;8962;52.538;13.266;2023-04-01T07:43:22;8.15;;;3.55;;
17686;SDS011;8962;52.538;13.266;2023-04-01T07:46:22;7.00;;;3.50;;
17686;SDS011;8962;52.538;13.266;2023-04-01T07:49:14;4.97;;;3.30;;
17686;SDS011;8962;52.538;13.266;2023-04-01T07:51:47;6.55;;;3.60;;
17686;SDS011;8962;52.538;13.266;2023-04-01T07:54:21;6.53;;;3.45;;
17686;SDS011;8962;52.538;13.266;2023-04-01T07:56:55;5.28;;;3.40;;
17686;SDS011;8962;52.538;13.266;2023-04-01T07:59:43;10.45;;;3.97;;
17686;SDS011;8962;52.538;13.266;2023-04-01T08:02:26;9.13;;;4.70;;
17686;SDS011;8962;52.538;13.266;2023-04-01T08:05:06;9.20;;;4.30;;
17686;SDS011;8962;52.538;13.266;2023-04-01T08:07:42;7.50;;;4.55;;
17686;SDS011;8962;52.538;13.266;2023-04-01T08:10:32;9.30;;;4.55;;
17686;SDS011;8962;52.538;13.266;2023-04-01T08:13:29;8.48;;;4.05;;
17686;SDS011;8962;52.538;13.266;2023-04-01T08:16:34;7.15;;;4.60;;
17686;SDS011;8962;52.538;13.266;2023-04-01T08:19:15;6.00;;;3.35;;
17686;SDS011;8962;52.538;13.266;2023-04-01T08:21:55;3.78;;;2.45;;
17686;SDS011;8962;52.538;13.266;2023-04-01T08:24:26;3.60;;;2.30;;
17686;SDS011;8962;52.538;13.266;2023-04-01T08:27:01;3.72;;;2.22;;
17686;SDS011;8962;52.538;13.266;2023-04-01T08:29:34;3.03;;;1.50;;
17686;SDS011;8962;52.538;13.266;2023-04-01T08:32:08;2.40;;;1.65;;
17686;SDS011;8962;52.538;13.266;2023-04-01T08:34:40;4.05;;;1.73;;
17686;SDS011;8962;52.538;13.266;2023-04-01T08:37:21;2.17;;;1.85;;
17686;SDS011;8962;52.538;13.266;2023-04-01T08:39:54;3.65;;;1.92;;
17686;SDS011;8962;52.538;13.266;2023-04-01T08:42:29;2.58;;;2.15;;
17686;SDS011;8962;52.538;13.266;2023-04-01T08:45:26;4.80;;;3.22;;
17686;SDS011;8962;52.538;13.266;2023-04-01T08:48:12;3.90;;;2.95;;
17686;SDS011;8962;52.538;13.266;2023-04-01T08:51:05;3.72;;;2.78;;
17686;SDS011;8962;52.538;13.266;2023-04-01T08:53:50;5.18;;;3.08;;
17686;SDS011;8962;52.538;13.266;2023-04-01T08:56:30;4.72;;;3.22;;
17686;SDS011;8962;52.538;13.266;2023-04-01T08:59:15;5.10;;;3.80;;
17686;SDS011;8962;52.538;13.266;2023-04-01T09:02:24;7.15;;;4.13;;
17686;SDS011;8962;52.538;13.266;2023-04-01T09:05:22;6.30;;;4.60;;
17686;SDS011;8962;52.538;13.266;2023-04-01T09:08:04;7.47;;;4.32;;
17686;SDS011;8962;52.538;13.266;2023-04-01T09:10:47;8.93;;;5.35;;
17686;SDS011;8962;52.538;13.266;2023-04-01T09:17:24;6.60;;;5.20;;
17686;SDS011;8962;52.538;13.266;2023-04-01T09:20:15;9.32;;;6.10;;
17686;SDS011;8962;52.538;13.266;2023-04-01T09:22:56;8.32;;;6.13;;
17686;SDS011;8962;52.538;13.266;2023-04-01T09:25:49;8.52;;;6.00;;
17686;SDS011;8962;52.538;13.266;2023-04-01T09:28:26;8.52;;;6.60;;
17686;SDS011;8962;52.538;13.266;2023-04-01T09:34:22;8.85;;;6.95;;
17686;SDS011;8962;52.538;13.266;2023-04-01T09:37:08;9.05;;;7.30;;
17686;SDS011;8962;52.538;13.266;2023-04-01T09:39:47;9.75;;;7.95;;
17686;SDS011;8962;52.538;13.266;2023-04-01T09:42:31;10.63;;;8.48;;
17686;SDS011;8962;52.538;13.266;2023-04-01T09:45:23;11.38;;;8.85;;
17686;SDS011;8962;52.538;13.266;2023-04-01T09:48:11;11.32;;;8.80;;
17686;SDS011;8962;52.538;13.266;2023-04-01T09:50:52;12.15;;;8.38;;
17686;SDS011;8962;52.538;13.266;2023-04-01T09:53:31;10.00;;;8.35;;
17686;SDS011;8962;52.538;13.266;2023-04-01T10:02:38;10.05;;;7.43;;
17686;SDS011;8962;52.538;13.266;2023-04-01T10:08:32;10.50;;;8.68;;
17686;SDS011;8962;52.538;13.266;2023-04-01T10:14:44;9.98;;;7.72;;
17686;SDS011;8962;52.538;13.266;2023-04-01T10:17:39;11.13;;;8.73;;
17686;SDS011;8962;52.538;13.266;2023-04-01T10:20:29;9.63;;;8.13;;
17686;SDS011;8962;52.538;13.266;2023-04-01T10:23:22;9.73;;;8.52;;
17686;SDS011;8962;52.538;13.266;2023-04-01T10:26:17;10.07;;;8.13;;
17686;SDS011;8962;52.538;13.266;2023-04-01T10:29:18;10.85;;;8.25;;
17686;SDS011;8962;52.538;13.266;2023-04-01T10:35:03;10.13;;;8.73;;
17686;SDS011;8962;52.538;13.266;2023-04-01T10:38:02;9.63;;;8.10;;
17686;SDS011;8962;52.538;13.266;2023-04-01T10:47:58;9.98;;;8.70;;
17686;SDS011;8962;52.538;13.266;2023-04-01T10:50:47;9.32;;;8.35;;
17686;SDS011;8962;52.538;13.266;2023-04-01T11:00:12;10.15;;;8.57;;
17686;SDS011;8962;52.538;13.266;2023-04-01T11:03:30;10.45;;;9.13;;
17686;SDS011;8962;52.538;13.266;2023-04-01T11:06:55;11.05;;;9.07;;
17686;SDS011;8962;52.538;13.266;2023-04-01T11:10:05;9.70;;;8.20;;
17686;SDS011;8962;52.538;13.266;2023-04-01T11:19:14;8.98;;;7.15;;
17686;SDS011;8962;52.538;13.266;2023-04-01T11:22:10;8.25;;;7.32;;
17686;SDS011;8962;52.538;13.266;2023-04-01T11:25:11;8.48;;;7.57;;
17686;SDS011;8962;52.538;13.266;2023-04-01T11:28:16;8.05;;;7.00;;
17686;SDS011;8962;52.538;13.266;2023-04-01T11:31:10;8.70;;;7.57;;
17686;SDS011;8962;52.538;13.266;2023-04-01T11:33:49;8.35;;;6.38;;
17686;SDS011;8962;52.538;13.266;2023-04-01T11:36:25;7.80;;;6.85;;
17686;SDS011;8962;52.538;13.266;2023-04-01T11:39:11;7.97;;;7.07;;
17686;SDS011;8962;52.538;13.266;2023-04-01T11:42:07;7.50;;;6.70;;
17686;SDS011;8962;52.538;13.266;2023-04-01T11:45:12;7.75;;;6.95;;
17686;SDS011;8962;52.538;13.266;2023-04-01T11:51:10;8.40;;;7.45;;
17686;SDS011;8962;52.538;13.266;2023-04-01T11:53:49;7.68;;;6.88;;
17686;SDS011;8962;52.538;13.266;2023-04-01T11:56:31;8.15;;;7.35;;
17686;SDS011;8962;52.538;13.266;2023-04-01T12:02:11;8.80;;;7.80;;
17686;SDS011;8962;52.538;13.266;2023-04-01T12:05:08;12.20;;;9.07;;
17686;SDS011;8962;52.538;13.266;2023-04-01T12:08:02;9.70;;;8.70;;
17686;SDS011;8962;52.538;13.266;2023-04-01T12:10:38;10.25;;;9.18;;
17686;SDS011;8962;52.538;13.266;2023-04-01T12:13:13;10.82;;;9.55;;
17686;SDS011;8962;52.538;13.266;2023-04-01T12:15:56;11.70;;;9.73;;
17686;SDS011;8962;52.538;13.266;2023-04-01T12:18:34;10.93;;;9.60;;
17686;SDS011;8962;52.538;13.266;2023-04-01T12:21:10;11.75;;;10.05;;
17686;SDS011;8962;52.538;13.266;2023-04-01T12:23:56;10.80;;;9.65;;
17686;SDS011;8962;52.538;13.266;2023-04-01T12:26:43;12.15;;;10.25;;
17686;SDS011;8962;52.538;13.266;2023-04-01T12:29:31;10.93;;;9.73;;
17686;SDS011;8962;52.538;13.266;2023-04-01T12:32:15;11.85;;;9.68;;
17686;SDS011;8962;52.538;13.266;2023-04-01T12:34:55;10.95;;;9.40;;
17686;SDS011;8962;52.538;13.266;2023-04-01T12:37:34;11.48;;;9.48;;
17686;SDS011;8962;52.538;13.266;2023-04-01T12:40:15;11.50;;;10.13;;
17686;SDS011;8962;52.538;13.266;2023-04-01T12:43:04;9.85;;;8.80;;
17686;SDS011;8962;52.538;13.266;2023-04-01T12:45:44;10.30;;;9.23;;
17686;SDS011;8962;52.538;13.266;2023-04-01T12:48:27;11.77;;;10.20;;
17686;SDS011;8962;52.538;13.266;2023-04-01T12:51:18;12.80;;;10.63;;
17686;SDS011;8962;52.538;13.266;2023-04-01T12:57:16;13.82;;;10.40;;
17686;SDS011;8962;52.538;13.266;2023-04-01T12:59:58;11.88;;;10.40;;
17686;SDS011;8962;52.538;13.266;2023-04-01T13:02:45;11.13;;;9.68;;
17686;SDS011;8962;52.538;13.266;2023-04-01T13:05:32;13.10;;;10.13;;
17686;SDS011;8962;52.538;13.266;2023-04-01T13:08:19;12.15;;;10.32;;
17686;SDS011;8962;52.538;13.266;2023-04-01T13:11:00;12.95;;;10.77;;
17686;SDS011;8962;52.538;13.266;2023-04-01T13:13:47;12.40;;;10.38;;
17686;SDS011;8962;52.538;13.266;2023-04-01T13:16:29;13.57;;;10.00;;
17686;SDS011;8962;52.538;13.266;2023-04-01T13:19:02;13.00;;;11.02;;
17686;SDS011;8962;52.538;13.266;2023-04-01T13:21:38;13.05;;;10.73;;
17686;SDS011;8962;52.538;13.266;2023-04-01T13:24:22;12.88;;;10.38;;
17686;SDS011;8962;52.538;13.266;2023-04-01T13:26:57;13.38;;;10.50;;
17686;SDS011;8962;52.538;13.266;2023-04-01T13:29:31;13.88;;;11.05;;
17686;SDS011;8962;52.538;13.266;2023-04-01T13:32:06;11.50;;;9.93;;
17686;SDS011;8962;52.538;13.266;2023-04-01T13:34:47;13.05;;;10.38;;
17686;SDS011;8962;52.538;13.266;2023-04-01T13:37:25;11.77;;;10.38;;
17686;SDS011;8962;52.538;13.266;2023-04-01T13:42:51;11.32;;;8.68;;
17686;SDS011;8962;52.538;13.266;2023-04-01T13:45:26;10.40;;;8.57;;
17686;SDS011;8962;52.538;13.266;2023-04-01T13:48:05;10.32;;;8.98;;
17686;SDS011;8962;52.538;13.266;2023-04-01T13:57:13;10.98;;;8.88;;
17686;SDS011;8962;52.538;13.266;2023-04-01T13:59:56;9.15;;;7.45;;
17686;SDS011;8962;52.538;13.266;2023-04-01T14:02:46;7.35;;;6.47;;
17686;SDS011;8962;52.538;13.266;2023-04-01T14:05:35;6.60;;;5.70;;
17686;SDS011;8962;52.538;13.266;2023-04-01T14:08:17;6.20;;;4.72;;
17686;SDS011;8962;52.538;13.266;2023-04-01T14:10:54;9.23;;;5.00;;
17686;SDS011;8962;52.538;13.266;2023-04-01T14:13:34;6.45;;;4.93;;
17686;SDS011;8962;52.538;13.266;2023-04-01T14:16:13;5.72;;;4.32;;
17686;SDS011;8962;52.538;13.266;2023-04-01T14:19:07;5.88;;;4.78;;
17686;SDS011;8962;52.538;13.266;2023-04-01T14:21:43;5.72;;;4.35;;
17686;SDS011;8962;52.538;13.266;2023-04-01T14:24:19;7.45;;;4.70;;
17686;SDS011;8962;52.538;13.266;2023-04-01T14:27:13;7.00;;;4.60;;
17686;SDS011;8962;52.538;13.266;2023-04-01T14:30:11;6.82;;;4.75;;
17686;SDS011;8962;52.538;13.266;2023-04-01T14:32:55;5.95;;;4.72;;
17686;SDS011;8962;52.538;13.266;2023-04-01T14:35:35;5.78;;;4.47;;
17686;SDS011;8962;52.538;13.266;2023-04-01T14:40:56;7.32;;;4.20;;
17686;SDS011;8962;52.538;13.266;2023-04-01T14:43:41;5.72;;;4.28;;
17686;SDS011;8962;52.538;13.266;2023-04-01T14:46:32;5.00;;;4.22;;
17686;SDS011;8962;52.538;13.266;2023-04-01T14:49:24;6.60;;;3.97;;
17686;SDS011;8962;52.538;13.266;2023-04-01T14:52:04;5.68;;;4.00;;
17686;SDS011;8962;52.538;13.266;2023-04-01T14:54:36;6.45;;;3.65;;
17686;SDS011;8962;52.538;13.266;2023-04-01T14:57:10;6.90;;;3.75;;
17686;SDS011;8962;52.538;13.266;2023-04-01T14:59:39;4.97;;;3.72;;
17686;SDS011;8962;52.538;13.266;2023-04-01T15:02:14;4.65;;;3.80;;
17686;SDS011;8962;52.538;13.266;2023-04-01T15:04:58;4.95;;;4.07;;
17686;SDS011;8962;52.538;13.266;2023-04-01T15:07:45;5.47;;;3.78;;
17686;SDS011;8962;52.538;13.266;2023-04-01T15:13:47;5.10;;;3.60;;
17686;SDS011;8962;52.538;13.266;2023-04-01T15:16:39;6.40;;;4.55;;
17686;SDS011;8962;52.538;13.266;2023-04-01T15:19:14;5.13;;;4.22;;
17686;SDS011;8962;52.538;13.266;2023-04-01T15:21:56;6.00;;;4.43;;
17686;SDS011;8962;52.538;13.266;2023-04-01T15:24:46;5.40;;;4.05;;
17686;SDS011;8962;52.538;13.266;2023-04-01T15:27:18;7.40;;;5.00;;
17686;SDS011;8962;52.538;13.266;2023-04-01T15:30:13;7.47;;;4.88;;
17686;SDS011;8962;52.538;13.266;2023-04-01T15:33:11;7.78;;;4.57;;
17686;SDS011;8962;52.538;13.266;2023-04-01T15:35:50;7.63;;;5.55;;
17686;SDS011;8962;52.538;13.266;2023-04-01T15:38:29;7.95;;;5.10;;
17686;SDS011;8962;52.538;13.266;2023-04-01T15:41:03;12.52;;;6.75;;
17686;SDS011;8962;52.538;13.266;2023-04-01T15:43:41;8.65;;;5.82;;
17686;SDS011;8962;52.538;13.266;2023-04-01T15:49:10;15.07;;;8.10;;
17686;SDS011;8962;52.538;13.266;2023-04-01T15:51:47;6.72;;;4.72;;
17686;SDS011;8962;52.538;13.266;2023-04-01T15:54:27;7.07;;;4.88;;
17686;SDS011;8962;52.538;13.266;2023-04-01T15:57:22;13.15;;;7.22;;
17686;SDS011;8962;52.538;13.266;2023-04-01T16:00:02;11.43;;;6.45;;
17686;SDS011;8962;52.538;13.266;2023-04-01T16:02:40;7.90;;;5.55;;
17686;SDS011;8962;52.538;13.266;2023-04-01T16:05:21;8.43;;;5.68;;
17686;SDS011;8962;52.538;13.266;2023-04-01T16:07:55;7.13;;;5.50;;
17686;SDS011;8962;52.538;13.266;2023-04-01T16:13:32;6.97;;;5.10;;
17686;SDS011;8962;52.538;13.266;2023-04-01T16:16:32;8.32;;;5.60;;
17686;SDS011;8962;52.538;13.266;2023-04-01T16:19:18;10.15;;;5.28;;
17686;SDS011;8962;52.538;13.266;2023-04-01T16:21:57;6.93;;;5.30;;
17686;SDS011;8962;52.538;13.266;2023-04-01T16:24:30;6.63;;;5.15;;
17686;SDS011;8962;52.538;13.266;2023-04-01T16:27:02;10.40;;;5.55;;
17686;SDS011;8962;52.538;13.266;2023-04-01T16:29:38;7.45;;;5.22;;
17686;SDS011;8962;52.538;13.266;2023-04-01T16:32:17;6.53;;;5.10;;
17686;SDS011;8962;52.538;13.266;2023-04-01T16:35:00;9.25;;;5.35;;
17686;SDS011;8962;52.538;13.266;2023-04-01T16:37:43;7.45;;;5.40;;
17686;SDS011;8962;52.538;13.266;2023-04-01T16:40:16;7.60;;;5.25;;
17686;SDS011;8962;52.538;13.266;2023-04-01T16:42:52;7.70;;;5.43;;
17686;SDS011;8962;52.538;13.266;2023-04-01T16:45:29;7.95;;;5.10;;
17686;SDS011;8962;52.538;13.266;2023-04-01T16:48:05;8.52;;;4.95;;
17686;SDS011;8962;52.538;13.266;2023-04-01T16:50:41;6.60;;;4.72;;
17686;SDS011;8962;52.538;13.266;2023-04-01T16:53:17;7.20;;;5.15;;
17686;SDS011;8962;52.538;13.266;2023-04-01T16:55:51;6.03;;;4.38;;
17686;SDS011;8962;52.538;13.266;2023-04-01T16:58:26;6.00;;;4.53;;
17686;SDS011;8962;52.538;13.266;2023-04-01T17:01:02;7.28;;;4.47;;
17686;SDS011;8962;52.538;13.266;2023-04-01T17:03:35;9.20;;;4.40;;
17686;SDS011;8962;52.538;13.266;2023-04-01T17:06:10;6.25;;;4.45;;
17686;SDS011;8962;52.538;13.266;2023-04-01T17:08:50;6.13;;;4.40;;
17686;SDS011;8962;52.538;13.266;2023-04-01T17:11:24;7.43;;;4.78;;
17686;SDS011;8962;52.538;13.266;2023-04-01T17:13:57;6.25;;;4.85;;